Decoded Metar for KHIE (WHITEFIELD in NH, USA) (IATA:HIE) | Meteo·Mobile Aviation Weather
aviador You're here:

KHIE Decoded Metar

WHITEFIELD in NH, USA
Report Time2019-07-23 06:52:00
UTC Time2019-07-23 07:02:56
Flight Rules vfr VFR
WindCalm
Visibility9999 m
Phenomena:N/A
Clouds:Few 003 Hf
Few 055 Hf
Overcast 080 Hf
Expected CloudBase > 800 ft AGL from Temp-Dew spread
Ceiling8,000 ft
Temp16°C (ISA +3)
Dew Point14°C (88% RH)
QNH1011 hPa
Density Alt1,690 ft
Elevation1,043 ft
Report Wrong Elevation
Raw Report
KHIE 230652Z AUTO 00000KT 10SM FEW003 FEW055 OVC080 16/14 A2985
RMK AO2 SLP106 T01560144=

Extra information for KHIE:More info

Metar Taf Metar & Taf Last 4 Metars F.Rules Stats Wind Profile Meteogram Temp Stats Airport Information Weather charts Add Link Nearby VenuesMetar ALERT Operation Metar Decoded Social comments

AIRNAV info for KHIE